createdAt,value
2018-09-16T00:02:04.112Z,12.60
2018-09-16T00:04:32.753Z,12.00
2018-09-16T00:07:01.449Z,11.77
2018-09-16T00:09:30.131Z,12.03
2018-09-16T00:11:58.788Z,12.27
2018-09-16T00:14:27.678Z,11.77
2018-09-16T00:16:56.377Z,12.27
2018-09-16T00:19:25.064Z,11.53
2018-09-16T00:21:53.756Z,11.90
2018-09-16T00:24:22.393Z,12.23
2018-09-16T00:26:51.070Z,11.30
2018-09-16T00:29:19.734Z,11.13
2018-09-16T00:31:52.537Z,12.13
2018-09-16T00:34:21.162Z,12.60
2018-09-16T00:36:49.824Z,12.77
2018-09-16T00:39:18.547Z,11.70
2018-09-16T00:41:47.228Z,11.93
2018-09-16T00:44:15.894Z,12.23
2018-09-16T00:46:44.667Z,12.00
2018-09-16T00:49:13.312Z,12.80
2018-09-16T00:51:42.834Z,11.73
2018-09-16T00:54:11.511Z,11.73
2018-09-16T00:56:40.155Z,12.00
2018-09-16T00:59:08.823Z,11.70
2018-09-16T01:01:37.470Z,11.40
2018-09-16T01:04:06.262Z,11.33
2018-09-16T01:06:37.486Z,10.60
2018-09-16T01:09:10.622Z,10.43
2018-09-16T01:11:39.318Z,10.30
2018-09-16T01:14:08.790Z,11.47
2018-09-16T01:16:38.379Z,10.57
2018-09-16T01:19:07.594Z,11.07
2018-09-16T01:21:36.789Z,10.90
2018-09-16T01:24:05.862Z,10.80
2018-09-16T01:26:34.810Z,11.13
2018-09-16T01:29:03.465Z,10.63
2018-09-16T01:31:32.137Z,10.23
2018-09-16T01:34:00.828Z,11.13
2018-09-16T01:36:29.491Z,10.30
2018-09-16T01:38:58.295Z,11.00
2018-09-16T01:41:26.987Z,10.17
2018-09-16T01:43:55.661Z,9.97
2018-09-16T01:46:24.330Z,10.53
2018-09-16T01:48:53.078Z,10.70
2018-09-16T01:51:21.735Z,10.20
2018-09-16T01:53:50.412Z,10.23
2018-09-16T01:56:19.062Z,10.77
2018-09-16T01:58:47.747Z,10.50
2018-09-16T02:01:16.374Z,10.97
2018-09-16T02:03:45.073Z,11.07
2018-09-16T02:06:13.742Z,9.47
2018-09-16T02:08:42.386Z,10.87
2018-09-16T02:11:11.083Z,10.57
2018-09-16T02:13:39.748Z,10.73
2018-09-16T02:16:08.388Z,10.37
2018-09-16T02:18:37.012Z,10.60
2018-09-16T02:21:05.689Z,10.20
2018-09-16T02:23:34.378Z,9.90
2018-09-16T02:26:03.088Z,10.07
2018-09-16T02:28:31.747Z,10.00
2018-09-16T02:31:00.413Z,9.83
2018-09-16T02:33:29.088Z,10.00
2018-09-16T02:35:57.767Z,11.73
2018-09-16T02:38:26.404Z,12.00
2018-09-16T02:40:55.163Z,12.23
2018-09-16T02:43:24.048Z,12.03
2018-09-16T02:45:52.730Z,11.40
2018-09-16T02:48:21.387Z,12.63
2018-09-16T02:50:50.098Z,12.30
2018-09-16T02:53:18.744Z,12.17
2018-09-16T02:55:47.430Z,12.67
2018-09-16T02:58:16.160Z,12.93
2018-09-16T03:00:44.923Z,12.50
2018-09-16T03:03:13.598Z,11.47
2018-09-16T03:05:48.288Z,10.03
2018-09-16T03:08:17.351Z,10.43
2018-09-16T03:10:46.256Z,10.37
2018-09-16T03:13:15.150Z,9.30
2018-09-16T03:15:43.822Z,10.00
2018-09-16T03:18:12.484Z,9.33
2018-09-16T03:20:41.197Z,10.00
2018-09-16T03:23:09.876Z,9.63
2018-09-16T03:25:38.524Z,9.13
2018-09-16T03:28:07.212Z,9.13
2018-09-16T03:30:35.835Z,9.10
2018-09-16T03:33:04.523Z,9.40
2018-09-16T03:35:33.195Z,9.07
2018-09-16T03:38:01.930Z,9.33
2018-09-16T03:40:30.551Z,9.40
2018-09-16T03:42:59.218Z,9.70
2018-09-16T03:45:27.877Z,9.73
2018-09-16T03:47:56.486Z,9.80
2018-09-16T03:50:25.200Z,9.30
2018-09-16T03:52:53.959Z,10.20
2018-09-16T03:55:22.614Z,9.50
2018-09-16T03:57:51.287Z,9.40
2018-09-16T04:00:19.939Z,9.80
2018-09-16T04:02:48.562Z,9.60
2018-09-16T04:05:19.705Z,9.87
2018-09-16T04:07:49.416Z,10.50
2018-09-16T04:10:18.133Z,9.60
2018-09-16T04:12:46.976Z,9.83
2018-09-16T04:15:15.711Z,9.87
2018-09-16T04:17:44.355Z,9.17
2018-09-16T04:20:13.012Z,9.80
2018-09-16T04:22:41.734Z,10.43
2018-09-16T04:25:10.420Z,8.90
2018-09-16T04:27:39.078Z,8.60
2018-09-16T04:30:08.118Z,9.77
2018-09-16T04:32:37.152Z,9.37
2018-09-16T04:35:06.134Z,9.23
2018-09-16T04:37:38.322Z,9.57
2018-09-16T04:40:07.328Z,9.10
2018-09-16T04:42:35.980Z,9.03
2018-09-16T04:45:04.757Z,8.97
2018-09-16T04:47:33.413Z,11.23
2018-09-16T04:50:02.179Z,8.60
2018-09-16T04:52:30.754Z,8.97
2018-09-16T04:54:59.372Z,9.53
2018-09-16T04:57:27.999Z,9.70
2018-09-16T04:59:56.660Z,9.57
2018-09-16T05:02:25.300Z,9.63
2018-09-16T05:04:53.954Z,10.17
2018-09-16T05:07:22.596Z,9.40
2018-09-16T05:09:51.211Z,9.97
2018-09-16T05:12:19.876Z,9.10
2018-09-16T05:14:48.553Z,9.20
2018-09-16T05:17:17.234Z,9.47
2018-09-16T05:19:45.942Z,9.47
2018-09-16T05:22:14.626Z,9.07
2018-09-16T05:24:43.384Z,9.70
2018-09-16T05:27:12.027Z,9.70
2018-09-16T05:29:40.696Z,9.30
2018-09-16T05:32:09.367Z,10.20
2018-09-16T05:34:38.126Z,9.73
2018-09-16T05:37:07.111Z,8.93
2018-09-16T05:39:35.849Z,8.60
2018-09-16T05:42:05.448Z,8.60
2018-09-16T05:44:34.187Z,9.10
2018-09-16T05:47:02.831Z,8.43
2018-09-16T05:49:31.496Z,8.40
2018-09-16T05:52:00.170Z,10.03
2018-09-16T05:54:28.916Z,7.92
2018-09-16T05:56:57.541Z,7.55
2018-09-16T05:59:26.226Z,8.03
2018-09-16T06:01:54.912Z,7.55
2018-09-16T06:04:23.576Z,8.38
2018-09-16T06:06:52.280Z,7.70
2018-09-16T06:09:20.897Z,7.37
2018-09-16T06:11:49.517Z,7.28
2018-09-16T06:14:18.163Z,7.05
2018-09-16T06:16:46.806Z,7.00
2018-09-16T06:19:15.503Z,7.25
2018-09-16T06:21:44.138Z,7.55
2018-09-16T06:24:12.766Z,7.33
2018-09-16T06:26:41.430Z,6.87
2018-09-16T06:29:10.079Z,7.37
2018-09-16T06:31:38.726Z,6.90
2018-09-16T06:34:07.425Z,6.10
2018-09-16T06:36:36.110Z,6.50
2018-09-16T06:39:07.188Z,6.22
2018-09-16T06:41:35.851Z,6.47
2018-09-16T06:44:04.554Z,6.95
2018-09-16T06:46:33.260Z,7.10
2018-09-16T06:49:01.998Z,7.15
2018-09-16T06:51:30.711Z,6.70
2018-09-16T06:53:59.485Z,5.97
2018-09-16T06:56:28.200Z,6.70
2018-09-16T06:58:57.154Z,6.40
2018-09-16T07:01:26.076Z,7.08
2018-09-16T07:03:55.160Z,6.00
2018-09-16T07:06:23.805Z,6.22
2018-09-16T07:08:52.448Z,5.80
2018-09-16T07:11:21.115Z,6.08
2018-09-16T07:13:49.781Z,5.95
2018-09-16T07:16:18.446Z,6.05
2018-09-16T07:18:47.099Z,5.85
2018-09-16T07:21:15.762Z,5.67
2018-09-16T07:23:44.434Z,6.20
2018-09-16T07:26:13.103Z,6.00
2018-09-16T07:28:41.787Z,5.42
2018-09-16T07:31:10.480Z,6.58
2018-09-16T07:33:39.144Z,5.60
2018-09-16T07:36:07.772Z,5.92
2018-09-16T07:38:36.409Z,5.70
2018-09-16T07:41:05.041Z,5.53
2018-09-16T07:43:33.702Z,5.55
2018-09-16T07:46:02.421Z,5.80
2018-09-16T07:48:31.074Z,6.20
2018-09-16T07:50:59.772Z,5.60
2018-09-16T07:53:28.397Z,6.10
2018-09-16T07:55:57.057Z,7.12
2018-09-16T07:58:25.748Z,6.53
2018-09-16T08:00:54.410Z,5.60
2018-09-16T08:03:23.089Z,6.22
2018-09-16T08:05:51.775Z,6.12
2018-09-16T08:08:20.574Z,6.60
2018-09-16T08:10:49.353Z,6.77
2018-09-16T08:13:18.038Z,6.27
2018-09-16T08:15:46.667Z,6.20
2018-09-16T08:18:15.359Z,5.77
2018-09-16T08:20:44.053Z,6.67
2018-09-16T08:23:12.791Z,6.20
2018-09-16T08:25:41.532Z,6.67
2018-09-16T08:28:10.228Z,5.90
2018-09-16T08:30:38.888Z,7.17
2018-09-16T08:33:07.571Z,6.90
2018-09-16T08:35:36.239Z,7.03
2018-09-16T08:38:04.941Z,6.97
2018-09-16T08:40:34.060Z,6.95
2018-09-16T08:43:02.816Z,6.50
2018-09-16T08:45:31.959Z,7.05
2018-09-16T08:48:00.650Z,6.87
2018-09-16T08:50:29.677Z,6.33
2018-09-16T08:52:58.799Z,6.53
2018-09-16T08:55:27.839Z,7.17
2018-09-16T08:57:56.680Z,6.75
2018-09-16T09:00:25.864Z,7.22
2018-09-16T09:02:54.784Z,7.20
2018-09-16T09:05:23.899Z,7.65
2018-09-16T09:07:56.495Z,7.22
2018-09-16T09:10:25.200Z,7.20
2018-09-16T09:12:53.958Z,6.92
2018-09-16T09:15:23.385Z,7.42
2018-09-16T09:17:52.594Z,6.95
2018-09-16T09:20:21.344Z,7.30
2018-09-16T09:22:50.257Z,7.47
2018-09-16T09:25:19.285Z,7.65
2018-09-16T09:27:47.975Z,7.08
2018-09-16T09:30:21.512Z,7.85
2018-09-16T09:32:50.200Z,7.42
2018-09-16T09:35:19.147Z,6.67
2018-09-16T09:37:48.860Z,7.53
2018-09-16T09:40:17.875Z,7.00
2018-09-16T09:42:46.983Z,8.10
2018-09-16T09:45:15.731Z,6.85
2018-09-16T09:47:44.650Z,7.17
2018-09-16T09:50:13.364Z,6.70
2018-09-16T09:52:42.827Z,7.40
2018-09-16T09:55:11.825Z,7.58
2018-09-16T09:57:41.224Z,8.90
2018-09-16T10:00:12.788Z,9.13
2018-09-16T10:02:41.512Z,10.00
2018-09-16T10:05:10.767Z,8.60
2018-09-16T10:07:39.679Z,8.30
2018-09-16T10:10:09.361Z,6.62
2018-09-16T10:12:38.425Z,6.50
2018-09-16T10:15:07.327Z,6.60
2018-09-16T10:17:36.619Z,6.50
2018-09-16T10:20:05.669Z,6.22
2018-09-16T10:22:34.790Z,5.97
2018-09-16T10:25:04.769Z,5.92
2018-09-16T10:28:07.440Z,6.20
2018-09-16T10:30:43.383Z,6.42
2018-09-16T10:33:12.088Z,6.00
2018-09-16T10:35:41.261Z,6.08
2018-09-16T10:38:11.191Z,5.90
2018-09-16T10:40:40.207Z,5.83
2018-09-16T10:43:08.937Z,5.87
2018-09-16T10:45:38.086Z,5.60
2018-09-16T10:48:06.998Z,5.35
2018-09-16T10:50:36.047Z,5.15
2018-09-16T10:53:05.299Z,5.00
2018-09-16T10:55:34.184Z,5.90
2018-09-16T10:58:03.028Z,6.20
2018-09-16T11:00:31.706Z,5.85
2018-09-16T11:03:00.801Z,5.15
2018-09-16T11:05:29.624Z,5.28
2018-09-16T11:07:58.397Z,5.50
2018-09-16T11:10:27.151Z,5.40
2018-09-16T11:12:55.837Z,5.30
2018-09-16T11:15:24.503Z,5.10
2018-09-16T11:17:53.458Z,5.50
2018-09-16T11:20:22.128Z,5.70
2018-09-16T11:22:50.856Z,5.47
2018-09-16T11:25:19.558Z,5.37
2018-09-16T11:28:15.588Z,5.10
2018-09-16T11:30:44.464Z,5.75
2018-09-16T11:33:28.085Z,7.12
2018-09-16T11:35:56.816Z,6.97
2018-09-16T11:38:25.513Z,8.08
2018-09-16T11:40:54.236Z,6.62
2018-09-16T11:43:23.006Z,7.22
2018-09-16T11:45:52.040Z,6.08
2018-09-16T11:48:40.708Z,5.40
2018-09-16T11:51:10.216Z,5.83
2018-09-16T11:53:39.363Z,5.95
2018-09-16T11:56:08.134Z,5.60
2018-09-16T11:58:36.911Z,5.90
2018-09-16T12:01:18.679Z,5.72
2018-09-16T12:03:47.400Z,6.17
2018-09-16T12:06:16.175Z,6.30
2018-09-16T12:08:45.119Z,5.33
2018-09-16T12:11:14.085Z,5.53
2018-09-16T12:13:42.872Z,5.45
2018-09-16T12:16:11.693Z,5.75
2018-09-16T12:18:40.536Z,5.30
2018-09-16T12:21:09.716Z,5.35
2018-09-16T12:23:42.656Z,5.50
2018-09-16T12:26:12.399Z,5.12
2018-09-16T12:28:41.540Z,6.30
2018-09-16T12:31:10.412Z,6.75
2018-09-16T12:33:39.243Z,5.67
2018-09-16T12:36:09.351Z,6.05
2018-09-16T12:38:38.216Z,5.50
2018-09-16T12:41:07.073Z,6.10
2018-09-16T12:43:37.066Z,7.90
2018-09-16T12:46:06.351Z,6.15
2018-09-16T12:48:35.424Z,5.92
2018-09-16T12:51:04.148Z,5.70
2018-09-16T12:53:34.272Z,5.37
2018-09-16T12:56:02.951Z,5.83
2018-09-16T12:58:31.603Z,6.37
2018-09-16T13:01:01.215Z,6.28
2018-09-16T13:03:29.899Z,6.35
2018-09-16T13:05:58.575Z,5.80
2018-09-16T13:08:27.302Z,5.50
2018-09-16T13:10:56.370Z,6.37
2018-09-16T13:13:25.080Z,4.97
2018-09-16T13:15:53.761Z,5.65
2018-09-16T13:18:22.466Z,5.33
2018-09-16T13:20:51.173Z,5.45
2018-09-16T13:23:22.845Z,5.15
2018-09-16T13:25:51.846Z,6.90
2018-09-16T13:28:20.695Z,5.42
2018-09-16T13:30:49.643Z,6.20
2018-09-16T13:33:18.266Z,6.15
2018-09-16T13:35:47.113Z,6.95
2018-09-16T13:38:16.056Z,6.00
2018-09-16T13:40:44.763Z,6.00
2018-09-16T13:43:13.601Z,5.80
2018-09-16T13:45:42.537Z,6.23
2018-09-16T13:48:11.268Z,6.67
2018-09-16T13:50:49.971Z,8.77
2018-09-16T13:53:18.751Z,5.13
2018-09-16T13:55:47.507Z,5.63
2018-09-16T13:58:20.400Z,4.93
2018-09-16T14:00:49.191Z,5.07
2018-09-16T14:03:17.857Z,5.33
2018-09-16T14:05:46.594Z,5.90
2018-09-16T14:08:18.452Z,6.10
2018-09-16T14:10:48.391Z,5.97
2018-09-16T14:13:17.650Z,5.67
2018-09-16T14:15:46.375Z,5.47
2018-09-16T14:18:15.168Z,5.73
2018-09-16T14:20:44.277Z,5.33
2018-09-16T14:23:13.037Z,5.97
2018-09-16T14:25:41.778Z,6.87
2018-09-16T14:28:10.473Z,6.63
2018-09-16T14:30:39.158Z,6.20
2018-09-16T14:33:07.970Z,5.53
2018-09-16T14:35:37.617Z,7.70
2018-09-16T14:38:06.337Z,8.00
2018-09-16T14:40:35.274Z,5.93
2018-09-16T14:43:03.974Z,5.80
2018-09-16T14:45:32.692Z,5.83
2018-09-16T14:48:01.379Z,5.40
2018-09-16T14:50:30.079Z,5.40
2018-09-16T14:52:58.788Z,5.07
2018-09-16T14:55:27.724Z,5.70
2018-09-16T14:57:56.705Z,5.83
2018-09-16T15:00:27.823Z,6.33
2018-09-16T15:02:56.652Z,5.80
2018-09-16T15:05:25.406Z,5.90
2018-09-16T15:07:54.286Z,6.17
2018-09-16T15:10:37.527Z,6.20
2018-09-16T15:13:06.685Z,6.90
2018-09-16T15:15:35.376Z,7.67
2018-09-16T15:18:04.117Z,7.87
2018-09-16T15:20:32.883Z,9.10
2018-09-16T15:23:01.660Z,7.30
2018-09-16T15:25:30.372Z,6.50
2018-09-16T15:27:59.114Z,6.50
2018-09-16T15:30:27.846Z,5.87
2018-09-16T15:32:56.817Z,6.80
2018-09-16T15:35:26.522Z,6.70
2018-09-16T15:37:55.723Z,5.60
2018-09-16T15:40:24.432Z,5.80
2018-09-16T15:42:53.431Z,5.33
2018-09-16T15:45:22.124Z,6.37
2018-09-16T15:47:50.853Z,5.20
2018-09-16T15:50:20.161Z,5.47
2018-09-16T15:52:49.169Z,5.27
2018-09-16T15:55:17.946Z,5.10
2018-09-16T15:57:46.568Z,5.83
2018-09-16T16:00:15.341Z,5.20
2018-09-16T16:02:44.163Z,5.90
2018-09-16T16:05:13.094Z,6.20
2018-09-16T16:07:41.788Z,7.00
2018-09-16T16:10:10.871Z,6.13
2018-09-16T16:12:39.604Z,7.13
2018-09-16T16:15:08.345Z,7.27
2018-09-16T16:17:37.026Z,5.60
2018-09-16T16:20:05.803Z,6.20
2018-09-16T16:22:34.508Z,5.00
2018-09-16T16:25:03.759Z,5.80
2018-09-16T16:27:33.425Z,7.13
2018-09-16T16:30:05.266Z,5.87
2018-09-16T16:32:33.943Z,5.40
2018-09-16T16:35:03.618Z,5.63
2018-09-16T16:37:32.377Z,7.27
2018-09-16T16:40:01.124Z,5.90
2018-09-16T16:42:29.891Z,6.23
2018-09-16T16:44:58.657Z,6.20
2018-09-16T16:47:27.320Z,6.27
2018-09-16T16:49:56.073Z,5.90
2018-09-16T16:52:24.742Z,5.63
2018-09-16T16:54:53.450Z,7.00
2018-09-16T16:57:22.120Z,6.70
2018-09-16T16:59:50.773Z,5.80
2018-09-16T17:02:19.411Z,6.20
2018-09-16T17:04:48.147Z,6.70
2018-09-16T17:07:16.886Z,5.90
2018-09-16T17:09:45.539Z,6.20
2018-09-16T17:12:14.209Z,5.30
2018-09-16T17:14:42.878Z,7.67
2018-09-16T17:17:11.613Z,5.73
2018-09-16T17:19:40.299Z,7.30
2018-09-16T17:22:09.021Z,6.03
2018-09-16T17:24:37.687Z,7.70
2018-09-16T17:27:06.471Z,6.00
2018-09-16T17:29:35.133Z,7.23
2018-09-16T17:32:04.037Z,5.77
2018-09-16T17:34:32.832Z,6.17
2018-09-16T17:37:01.541Z,5.67
2018-09-16T17:39:30.222Z,6.10
2018-09-16T17:41:58.924Z,6.20
2018-09-16T17:44:27.664Z,5.20
2018-09-16T17:46:56.706Z,5.57
2018-09-16T17:49:25.780Z,5.53
2018-09-16T17:51:54.516Z,5.20
2018-09-16T17:54:23.553Z,6.27
2018-09-16T17:56:52.436Z,6.20
2018-09-16T17:59:21.170Z,5.80
2018-09-16T18:01:49.867Z,6.07
2018-09-16T18:04:18.570Z,5.90
2018-09-16T18:06:47.363Z,6.10
2018-09-16T18:09:16.063Z,5.47
2018-09-16T18:11:44.932Z,5.10
2018-09-16T18:14:13.646Z,5.10
2018-09-16T18:16:42.620Z,5.60
2018-09-16T18:19:11.282Z,5.63
2018-09-16T18:21:39.938Z,6.47
2018-09-16T18:24:08.762Z,6.63
2018-09-16T18:26:37.664Z,6.17
2018-09-16T18:29:06.472Z,6.77
2018-09-16T18:31:35.193Z,6.63
2018-09-16T18:34:04.730Z,7.00
2018-09-16T18:36:33.581Z,6.50
2018-09-16T18:39:02.333Z,5.90
2018-09-16T18:41:31.010Z,5.60
2018-09-16T18:43:59.680Z,6.03
2018-09-16T18:46:28.386Z,6.40
2018-09-16T18:48:57.084Z,7.20
2018-09-16T18:51:25.792Z,6.13
2018-09-16T18:53:54.499Z,7.43
2018-09-16T18:56:23.224Z,7.57
2018-09-16T18:58:52.490Z,6.63
2018-09-16T19:01:21.208Z,7.27
2018-09-16T19:03:50.218Z,5.50
2018-09-16T19:06:18.882Z,6.90
2018-09-16T19:08:47.539Z,7.17
2018-09-16T19:11:16.261Z,6.40
2018-09-16T19:13:45.299Z,5.77
2018-09-16T19:16:14.112Z,6.80
2018-09-16T19:18:42.853Z,5.57
2018-09-16T19:21:11.774Z,5.57
2018-09-16T19:23:41.345Z,5.43
2018-09-16T19:26:10.783Z,5.87
2018-09-16T19:28:39.549Z,5.70
2018-09-16T19:31:09.664Z,4.93
2018-09-16T19:33:38.556Z,5.37
2018-09-16T19:36:07.540Z,5.67
2018-09-16T19:38:36.268Z,4.63
2018-09-16T19:41:24.050Z,5.13
2018-09-16T19:43:52.719Z,4.97
2018-09-16T19:46:21.472Z,4.67
2018-09-16T19:48:50.224Z,5.07
2018-09-16T19:51:19.203Z,5.20
2018-09-16T19:53:48.233Z,5.27
2018-09-16T19:56:16.991Z,5.37
2018-09-16T19:58:45.694Z,4.73
2018-09-16T20:01:14.379Z,5.33
2018-09-16T20:03:43.095Z,4.80
2018-09-16T20:06:11.794Z,4.97
2018-09-16T20:08:40.488Z,4.60
2018-09-16T20:11:09.475Z,4.87
2018-09-16T20:13:38.150Z,6.50
2018-09-16T20:16:06.828Z,5.37
2018-09-16T20:18:35.572Z,5.83
2018-09-16T20:21:04.719Z,4.87
2018-09-16T20:23:33.452Z,4.20
2018-09-16T20:26:02.154Z,5.00
2018-09-16T20:28:30.875Z,10.70
2018-09-16T20:30:59.716Z,4.50
2018-09-16T20:33:28.390Z,4.97
2018-09-16T20:35:57.047Z,4.10
2018-09-16T20:38:25.789Z,4.37
2018-09-16T20:40:54.423Z,4.60
2018-09-16T20:43:23.091Z,4.63
2018-09-16T20:45:51.759Z,4.53
2018-09-16T20:48:20.415Z,5.00
2018-09-16T20:50:49.055Z,6.80
2018-09-16T20:53:17.696Z,7.13
2018-09-16T20:55:46.874Z,8.87
2018-09-16T20:58:15.597Z,9.97
2018-09-16T21:00:44.351Z,11.07
2018-09-16T21:03:13.077Z,9.97
2018-09-16T21:05:41.793Z,9.17
2018-09-16T21:08:10.441Z,8.50
2018-09-16T21:10:39.096Z,7.13
2018-09-16T21:13:07.820Z,6.20
2018-09-16T21:15:36.459Z,5.70
2018-09-16T21:18:05.146Z,5.43
2018-09-16T21:20:33.798Z,5.53
2018-09-16T21:23:02.443Z,8.33
2018-09-16T21:25:31.125Z,7.03
2018-09-16T21:27:59.805Z,8.10
2018-09-16T21:30:28.490Z,6.27
2018-09-16T21:32:57.123Z,5.90
2018-09-16T21:35:25.795Z,5.90
2018-09-16T21:37:54.475Z,6.87
2018-09-16T21:40:23.149Z,7.30
2018-09-16T21:42:51.803Z,7.67
2018-09-16T21:45:20.562Z,6.80
2018-09-16T21:47:49.317Z,6.50
2018-09-16T21:50:18.062Z,5.83
2018-09-16T21:52:46.774Z,7.00
2018-09-16T21:55:15.593Z,5.63
2018-09-16T21:57:44.300Z,6.07
2018-09-16T22:00:15.697Z,5.60
2018-09-16T22:02:44.404Z,5.67
2018-09-16T22:05:13.202Z,5.60
2018-09-16T22:07:41.843Z,5.83
2018-09-16T22:10:10.530Z,6.70
2018-09-16T22:12:39.263Z,6.53
2018-09-16T22:15:07.967Z,6.23
2018-09-16T22:17:36.722Z,5.97
2018-09-16T22:20:05.438Z,5.77
2018-09-16T22:22:34.111Z,5.63
2018-09-16T22:25:02.750Z,5.53
2018-09-16T22:27:31.381Z,6.23
2018-09-16T22:30:00.074Z,6.50
2018-09-16T22:32:28.753Z,5.87
2018-09-16T22:34:57.408Z,6.00
2018-09-16T22:37:26.137Z,6.53
2018-09-16T22:39:54.791Z,6.37
2018-09-16T22:42:23.479Z,5.97
2018-09-16T22:44:52.151Z,6.10
2018-09-16T22:47:20.848Z,5.97
2018-09-16T22:49:49.540Z,6.17
2018-09-16T22:52:18.512Z,6.37
2018-09-16T22:54:47.214Z,6.43
2018-09-16T22:57:15.878Z,6.00
2018-09-16T22:59:44.789Z,7.50
2018-09-16T23:02:13.557Z,7.60
2018-09-16T23:04:42.260Z,8.40
2018-09-16T23:07:11.364Z,9.00
2018-09-16T23:09:40.003Z,8.80
2018-09-16T23:12:08.634Z,9.23
2018-09-16T23:14:37.265Z,9.90
2018-09-16T23:17:06.042Z,8.83
2018-09-16T23:19:34.701Z,9.50
2018-09-16T23:22:03.403Z,8.17
2018-09-16T23:24:32.127Z,8.77
2018-09-16T23:27:00.778Z,8.37
2018-09-16T23:29:29.491Z,8.87
2018-09-16T23:31:58.186Z,8.90
2018-09-16T23:34:26.880Z,9.50
2018-09-16T23:36:55.568Z,9.50
2018-09-16T23:39:24.247Z,8.53
2018-09-16T23:41:53.057Z,9.57
2018-09-16T23:44:21.795Z,9.10
2018-09-16T23:46:50.454Z,10.07
2018-09-16T23:49:19.276Z,10.40
2018-09-16T23:51:47.932Z,9.47
2018-09-16T23:54:16.612Z,10.00
2018-09-16T23:56:45.291Z,9.30
2018-09-16T23:59:13.965Z,9.70
